Terminal Aerodrome Forecast
Issued by NWS

Home | Current Version | Previous Version | Graphics & Text | Print | Product List | Glossary On
Versions: 1 2 3 4 5 6 7 8 9 10 11 12 13 14 15 16 17 18 19 20 21 22 23 24 25 26 27 28 29 30 31
966
FTUS45 KGGW 122015 AAA
TAFOLF
TAF AMD
KOLF 122015Z 1220/1318 09012KT P6SM OVC030
     FM130000 10013KT 6SM -SN OVC015
     FM130600 10012KT P6SM VCSH OVC015
     FM130900 10010KT P6SM VCSH OVC035
      AMD LTD TO CLD WX AND WIND=

USA.gov is the U.S. government's official web portal to all federal, state and local government web resources and services.